sensor_id;sensor_type;location;lat;lon;timestamp;P1;durP1;ratioP1;P2;durP2;ratioP2
73132;SDS011;61320;52.008;4.530;2023-07-08T00:00:51;5.00;;;5.00;;
73132;SDS011;61320;52.008;4.530;2023-07-08T00:03:18;5.21;;;5.21;;
73132;SDS011;61320;52.008;4.530;2023-07-08T00:05:45;5.18;;;5.18;;
73132;SDS011;61320;52.008;4.530;2023-07-08T00:08:16;5.48;;;5.48;;
73132;SDS011;61320;52.008;4.530;2023-07-08T00:10:44;5.69;;;5.69;;
73132;SDS011;61320;52.008;4.530;2023-07-08T00:13:10;5.01;;;5.01;;
73132;SDS011;61320;52.008;4.530;2023-07-08T00:15:36;4.84;;;4.84;;
73132;SDS011;61320;52.008;4.530;2023-07-08T00:18:11;4.65;;;4.65;;
73132;SDS011;61320;52.008;4.530;2023-07-08T00:20:42;4.44;;;4.44;;
73132;SDS011;61320;52.008;4.530;2023-07-08T00:23:12;4.86;;;4.86;;
73132;SDS011;61320;52.008;4.530;2023-07-08T00:25:38;4.93;;;4.93;;
73132;SDS011;61320;52.008;4.530;2023-07-08T00:28:09;5.06;;;5.06;;
73132;SDS011;61320;52.008;4.530;2023-07-08T00:30:42;5.10;;;5.10;;
73132;SDS011;61320;52.008;4.530;2023-07-08T00:33:08;5.09;;;5.09;;
73132;SDS011;61320;52.008;4.530;2023-07-08T00:38:11;5.33;;;5.33;;
73132;SDS011;61320;52.008;4.530;2023-07-08T00:40:48;4.79;;;4.79;;
73132;SDS011;61320;52.008;4.530;2023-07-08T00:43:16;5.04;;;5.04;;
73132;SDS011;61320;52.008;4.530;2023-07-08T00:45:44;5.10;;;5.10;;
73132;SDS011;61320;52.008;4.530;2023-07-08T00:48:19;4.88;;;4.88;;
73132;SDS011;61320;52.008;4.530;2023-07-08T00:50:49;5.28;;;5.28;;
73132;SDS011;61320;52.008;4.530;2023-07-08T00:53:26;5.46;;;5.46;;
73132;SDS011;61320;52.008;4.530;2023-07-08T00:56:01;5.27;;;5.27;;
73132;SDS011;61320;52.008;4.530;2023-07-08T00:58:35;5.37;;;5.37;;
73132;SDS011;61320;52.008;4.530;2023-07-08T01:01:07;5.03;;;5.03;;
73132;SDS011;61320;52.008;4.530;2023-07-08T01:03:45;5.16;;;5.16;;
73132;SDS011;61320;52.008;4.530;2023-07-08T01:06:18;5.15;;;5.15;;
73132;SDS011;61320;52.008;4.530;2023-07-08T01:08:47;4.95;;;4.95;;
73132;SDS011;61320;52.008;4.530;2023-07-08T01:11:17;5.57;;;5.57;;
73132;SDS011;61320;52.008;4.530;2023-07-08T01:13:46;5.32;;;5.32;;
73132;SDS011;61320;52.008;4.530;2023-07-08T01:16:16;5.34;;;5.34;;
73132;SDS011;61320;52.008;4.530;2023-07-08T01:18:42;5.31;;;5.31;;
73132;SDS011;61320;52.008;4.530;2023-07-08T01:24:10;5.07;;;5.07;;
73132;SDS011;61320;52.008;4.530;2023-07-08T01:26:37;5.14;;;5.14;;
73132;SDS011;61320;52.008;4.530;2023-07-08T01:29:09;4.94;;;4.94;;
73132;SDS011;61320;52.008;4.530;2023-07-08T01:31:35;4.91;;;4.91;;
73132;SDS011;61320;52.008;4.530;2023-07-08T01:34:02;4.87;;;4.87;;
73132;SDS011;61320;52.008;4.530;2023-07-08T01:36:34;5.06;;;5.06;;
73132;SDS011;61320;52.008;4.530;2023-07-08T01:39:03;4.87;;;4.87;;
73132;SDS011;61320;52.008;4.530;2023-07-08T01:41:29;5.13;;;5.13;;
73132;SDS011;61320;52.008;4.530;2023-07-08T01:43:54;4.98;;;4.98;;
73132;SDS011;61320;52.008;4.530;2023-07-08T01:46:21;5.24;;;5.24;;
73132;SDS011;61320;52.008;4.530;2023-07-08T01:48:53;5.41;;;5.41;;
73132;SDS011;61320;52.008;4.530;2023-07-08T01:51:23;5.34;;;5.34;;
73132;SDS011;61320;52.008;4.530;2023-07-08T01:53:51;5.22;;;5.22;;
73132;SDS011;61320;52.008;4.530;2023-07-08T01:56:17;5.19;;;5.19;;
73132;SDS011;61320;52.008;4.530;2023-07-08T01:58:43;5.18;;;5.18;;
73132;SDS011;61320;52.008;4.530;2023-07-08T02:01:09;5.68;;;5.68;;
73132;SDS011;61320;52.008;4.530;2023-07-08T02:03:34;5.64;;;5.64;;
73132;SDS011;61320;52.008;4.530;2023-07-08T02:06:00;5.92;;;5.92;;
73132;SDS011;61320;52.008;4.530;2023-07-08T02:08:26;5.69;;;5.69;;
73132;SDS011;61320;52.008;4.530;2023-07-08T02:10:55;6.34;;;6.34;;
73132;SDS011;61320;52.008;4.530;2023-07-08T02:13:23;5.84;;;5.84;;
73132;SDS011;61320;52.008;4.530;2023-07-08T02:15:49;5.90;;;5.90;;
73132;SDS011;61320;52.008;4.530;2023-07-08T02:18:16;5.74;;;5.74;;
73132;SDS011;61320;52.008;4.530;2023-07-08T02:20:44;5.58;;;5.58;;
73132;SDS011;61320;52.008;4.530;2023-07-08T02:23:10;5.41;;;5.41;;
73132;SDS011;61320;52.008;4.530;2023-07-08T02:25:35;5.54;;;5.54;;
73132;SDS011;61320;52.008;4.530;2023-07-08T02:28:01;5.26;;;5.26;;
73132;SDS011;61320;52.008;4.530;2023-07-08T02:30:26;5.29;;;5.29;;
73132;SDS011;61320;52.008;4.530;2023-07-08T02:32:52;5.47;;;5.47;;
73132;SDS011;61320;52.008;4.530;2023-07-08T02:35:25;5.60;;;5.60;;
73132;SDS011;61320;52.008;4.530;2023-07-08T02:37:53;5.67;;;5.67;;
73132;SDS011;61320;52.008;4.530;2023-07-08T02:40:20;5.79;;;5.79;;
73132;SDS011;61320;52.008;4.530;2023-07-08T02:42:46;5.86;;;5.86;;
73132;SDS011;61320;52.008;4.530;2023-07-08T02:45:12;5.66;;;5.66;;
73132;SDS011;61320;52.008;4.530;2023-07-08T02:47:37;5.52;;;5.52;;
73132;SDS011;61320;52.008;4.530;2023-07-08T02:50:03;5.84;;;5.84;;
73132;SDS011;61320;52.008;4.530;2023-07-08T02:52:29;5.89;;;5.89;;
73132;SDS011;61320;52.008;4.530;2023-07-08T02:54:55;6.07;;;6.07;;
73132;SDS011;61320;52.008;4.530;2023-07-08T02:57:20;5.90;;;5.90;;
73132;SDS011;61320;52.008;4.530;2023-07-08T02:59:46;5.87;;;5.87;;
73132;SDS011;61320;52.008;4.530;2023-07-08T03:02:11;5.94;;;5.94;;
73132;SDS011;61320;52.008;4.530;2023-07-08T03:04:37;6.02;;;6.02;;
73132;SDS011;61320;52.008;4.530;2023-07-08T03:07:05;6.22;;;6.22;;
73132;SDS011;61320;52.008;4.530;2023-07-08T03:09:31;6.18;;;6.18;;
73132;SDS011;61320;52.008;4.530;2023-07-08T03:11:57;5.81;;;5.81;;
73132;SDS011;61320;52.008;4.530;2023-07-08T03:14:23;6.23;;;6.23;;
73132;SDS011;61320;52.008;4.530;2023-07-08T03:16:49;5.90;;;5.90;;
73132;SDS011;61320;52.008;4.530;2023-07-08T03:19:15;6.04;;;6.04;;
73132;SDS011;61320;52.008;4.530;2023-07-08T03:21:42;5.93;;;5.93;;
73132;SDS011;61320;52.008;4.530;2023-07-08T03:24:09;6.28;;;6.28;;
73132;SDS011;61320;52.008;4.530;2023-07-08T03:26:39;6.12;;;6.12;;
73132;SDS011;61320;52.008;4.530;2023-07-08T03:29:05;6.32;;;6.32;;
73132;SDS011;61320;52.008;4.530;2023-07-08T03:31:33;6.28;;;6.28;;
73132;SDS011;61320;52.008;4.530;2023-07-08T03:33:59;6.23;;;6.23;;
73132;SDS011;61320;52.008;4.530;2023-07-08T03:36:24;6.54;;;6.54;;
73132;SDS011;61320;52.008;4.530;2023-07-08T03:38:55;6.29;;;6.29;;
73132;SDS011;61320;52.008;4.530;2023-07-08T03:41:22;6.16;;;6.16;;
73132;SDS011;61320;52.008;4.530;2023-07-08T03:43:48;6.70;;;6.70;;
73132;SDS011;61320;52.008;4.530;2023-07-08T03:46:18;6.34;;;6.34;;
73132;SDS011;61320;52.008;4.530;2023-07-08T03:48:46;6.49;;;6.49;;
73132;SDS011;61320;52.008;4.530;2023-07-08T03:51:15;6.56;;;6.56;;
73132;SDS011;61320;52.008;4.530;2023-07-08T03:53:45;6.35;;;6.35;;
73132;SDS011;61320;52.008;4.530;2023-07-08T03:56:11;6.30;;;6.30;;
73132;SDS011;61320;52.008;4.530;2023-07-08T03:58:38;6.29;;;6.29;;
73132;SDS011;61320;52.008;4.530;2023-07-08T04:01:03;6.44;;;6.44;;
73132;SDS011;61320;52.008;4.530;2023-07-08T04:03:29;6.53;;;6.53;;
73132;SDS011;61320;52.008;4.530;2023-07-08T04:05:55;7.31;;;7.31;;
73132;SDS011;61320;52.008;4.530;2023-07-08T04:08:21;7.25;;;7.25;;
73132;SDS011;61320;52.008;4.530;2023-07-08T04:10:46;6.72;;;6.72;;
73132;SDS011;61320;52.008;4.530;2023-07-08T04:13:12;6.70;;;6.70;;
73132;SDS011;61320;52.008;4.530;2023-07-08T04:15:37;6.56;;;6.56;;
73132;SDS011;61320;52.008;4.530;2023-07-08T04:18:03;6.92;;;6.92;;
73132;SDS011;61320;52.008;4.530;2023-07-08T04:20:28;6.85;;;6.85;;
73132;SDS011;61320;52.008;4.530;2023-07-08T04:22:54;6.60;;;6.60;;
73132;SDS011;61320;52.008;4.530;2023-07-08T04:25:20;6.39;;;6.39;;
73132;SDS011;61320;52.008;4.530;2023-07-08T04:27:46;6.81;;;6.81;;
73132;SDS011;61320;52.008;4.530;2023-07-08T04:30:30;7.07;;;7.07;;
73132;SDS011;61320;52.008;4.530;2023-07-08T04:32:55;6.84;;;6.84;;
73132;SDS011;61320;52.008;4.530;2023-07-08T04:35:21;6.55;;;6.55;;
73132;SDS011;61320;52.008;4.530;2023-07-08T04:37:46;6.62;;;6.62;;
73132;SDS011;61320;52.008;4.530;2023-07-08T04:40:16;6.54;;;6.54;;
73132;SDS011;61320;52.008;4.530;2023-07-08T04:42:45;6.51;;;6.51;;
73132;SDS011;61320;52.008;4.530;2023-07-08T04:45:13;6.77;;;6.77;;
73132;SDS011;61320;52.008;4.530;2023-07-08T04:47:40;6.57;;;6.57;;
73132;SDS011;61320;52.008;4.530;2023-07-08T04:50:05;6.72;;;6.72;;
73132;SDS011;61320;52.008;4.530;2023-07-08T04:52:33;6.83;;;6.83;;
73132;SDS011;61320;52.008;4.530;2023-07-08T04:54:58;6.89;;;6.89;;
73132;SDS011;61320;52.008;4.530;2023-07-08T04:57:24;6.49;;;6.49;;
73132;SDS011;61320;52.008;4.530;2023-07-08T04:59:50;6.78;;;6.78;;
73132;SDS011;61320;52.008;4.530;2023-07-08T05:02:15;6.60;;;6.60;;
73132;SDS011;61320;52.008;4.530;2023-07-08T05:04:41;6.94;;;6.94;;
73132;SDS011;61320;52.008;4.530;2023-07-08T05:07:06;7.05;;;7.05;;
73132;SDS011;61320;52.008;4.530;2023-07-08T05:09:32;6.96;;;6.96;;
73132;SDS011;61320;52.008;4.530;2023-07-08T05:11:57;6.82;;;6.82;;
73132;SDS011;61320;52.008;4.530;2023-07-08T05:14:23;6.87;;;6.87;;
73132;SDS011;61320;52.008;4.530;2023-07-08T05:16:48;6.83;;;6.83;;
73132;SDS011;61320;52.008;4.530;2023-07-08T05:19:14;6.94;;;6.94;;
73132;SDS011;61320;52.008;4.530;2023-07-08T05:21:40;7.33;;;7.33;;
73132;SDS011;61320;52.008;4.530;2023-07-08T05:24:05;6.79;;;6.79;;
73132;SDS011;61320;52.008;4.530;2023-07-08T05:26:32;6.81;;;6.81;;
73132;SDS011;61320;52.008;4.530;2023-07-08T05:28:58;6.96;;;6.96;;
73132;SDS011;61320;52.008;4.530;2023-07-08T05:31:24;6.94;;;6.94;;
73132;SDS011;61320;52.008;4.530;2023-07-08T05:33:50;6.33;;;6.33;;
73132;SDS011;61320;52.008;4.530;2023-07-08T05:36:16;6.55;;;6.55;;
73132;SDS011;61320;52.008;4.530;2023-07-08T05:38:41;6.80;;;6.80;;
73132;SDS011;61320;52.008;4.530;2023-07-08T05:41:07;7.09;;;7.09;;
73132;SDS011;61320;52.008;4.530;2023-07-08T05:43:32;6.61;;;6.61;;
73132;SDS011;61320;52.008;4.530;2023-07-08T05:45:59;7.01;;;7.01;;
73132;SDS011;61320;52.008;4.530;2023-07-08T05:48:25;6.57;;;6.57;;
73132;SDS011;61320;52.008;4.530;2023-07-08T05:50:51;6.77;;;6.77;;
73132;SDS011;61320;52.008;4.530;2023-07-08T05:53:18;6.57;;;6.57;;
73132;SDS011;61320;52.008;4.530;2023-07-08T05:55:45;6.55;;;6.55;;
73132;SDS011;61320;52.008;4.530;2023-07-08T05:58:11;6.56;;;6.56;;
73132;SDS011;61320;52.008;4.530;2023-07-08T06:00:40;6.51;;;6.51;;
73132;SDS011;61320;52.008;4.530;2023-07-08T06:03:09;6.45;;;6.45;;
73132;SDS011;61320;52.008;4.530;2023-07-08T06:05:38;6.26;;;6.26;;
73132;SDS011;61320;52.008;4.530;2023-07-08T06:08:05;6.60;;;6.60;;
73132;SDS011;61320;52.008;4.530;2023-07-08T06:10:32;6.51;;;6.51;;
73132;SDS011;61320;52.008;4.530;2023-07-08T06:12:58;6.15;;;6.15;;
73132;SDS011;61320;52.008;4.530;2023-07-08T06:15:24;5.46;;;5.46;;
73132;SDS011;61320;52.008;4.530;2023-07-08T06:17:49;5.36;;;5.36;;
73132;SDS011;61320;52.008;4.530;2023-07-08T06:20:15;5.50;;;5.50;;
73132;SDS011;61320;52.008;4.530;2023-07-08T06:22:40;5.44;;;5.44;;
73132;SDS011;61320;52.008;4.530;2023-07-08T06:25:06;5.13;;;5.13;;
73132;SDS011;61320;52.008;4.530;2023-07-08T06:27:32;5.04;;;5.04;;
73132;SDS011;61320;52.008;4.530;2023-07-08T06:29:58;5.22;;;5.22;;
73132;SDS011;61320;52.008;4.530;2023-07-08T06:32:23;5.35;;;5.35;;
73132;SDS011;61320;52.008;4.530;2023-07-08T06:34:49;5.58;;;5.58;;
73132;SDS011;61320;52.008;4.530;2023-07-08T06:37:14;5.24;;;5.24;;
73132;SDS011;61320;52.008;4.530;2023-07-08T06:39:40;5.40;;;5.40;;
73132;SDS011;61320;52.008;4.530;2023-07-08T06:42:05;5.22;;;5.22;;
73132;SDS011;61320;52.008;4.530;2023-07-08T06:44:31;5.36;;;5.36;;
73132;SDS011;61320;52.008;4.530;2023-07-08T06:46:56;5.24;;;5.24;;
73132;SDS011;61320;52.008;4.530;2023-07-08T06:49:22;5.09;;;5.09;;
73132;SDS011;61320;52.008;4.530;2023-07-08T06:51:48;5.11;;;5.11;;
73132;SDS011;61320;52.008;4.530;2023-07-08T06:54:14;4.92;;;4.92;;
73132;SDS011;61320;52.008;4.530;2023-07-08T06:56:43;4.81;;;4.81;;
73132;SDS011;61320;52.008;4.530;2023-07-08T06:59:08;5.07;;;5.07;;
73132;SDS011;61320;52.008;4.530;2023-07-08T07:01:33;5.04;;;5.04;;
73132;SDS011;61320;52.008;4.530;2023-07-08T07:03:59;5.15;;;5.15;;
73132;SDS011;61320;52.008;4.530;2023-07-08T07:06:26;5.75;;;5.75;;
73132;SDS011;61320;52.008;4.530;2023-07-08T07:08:51;5.51;;;5.51;;
73132;SDS011;61320;52.008;4.530;2023-07-08T07:11:17;5.06;;;5.06;;
73132;SDS011;61320;52.008;4.530;2023-07-08T07:13:44;5.81;;;5.81;;
73132;SDS011;61320;52.008;4.530;2023-07-08T07:16:10;5.40;;;5.40;;
73132;SDS011;61320;52.008;4.530;2023-07-08T07:18:39;5.02;;;5.02;;
73132;SDS011;61320;52.008;4.530;2023-07-08T07:21:04;5.21;;;5.21;;
73132;SDS011;61320;52.008;4.530;2023-07-08T07:23:29;5.53;;;5.53;;
73132;SDS011;61320;52.008;4.530;2023-07-08T07:25:55;5.24;;;5.24;;
73132;SDS011;61320;52.008;4.530;2023-07-08T07:28:22;5.42;;;5.42;;
73132;SDS011;61320;52.008;4.530;2023-07-08T07:30:54;5.67;;;5.67;;
73132;SDS011;61320;52.008;4.530;2023-07-08T07:33:26;5.40;;;5.40;;
73132;SDS011;61320;52.008;4.530;2023-07-08T07:35:52;5.97;;;5.97;;
73132;SDS011;61320;52.008;4.530;2023-07-08T07:38:18;5.59;;;5.59;;
73132;SDS011;61320;52.008;4.530;2023-07-08T07:40:43;5.30;;;5.30;;
73132;SDS011;61320;52.008;4.530;2023-07-08T07:43:10;5.42;;;5.42;;
73132;SDS011;61320;52.008;4.530;2023-07-08T07:45:35;5.58;;;5.58;;
73132;SDS011;61320;52.008;4.530;2023-07-08T07:48:01;5.72;;;5.72;;
73132;SDS011;61320;52.008;4.530;2023-07-08T07:50:27;5.43;;;5.43;;
73132;SDS011;61320;52.008;4.530;2023-07-08T07:52:53;6.06;;;6.06;;
73132;SDS011;61320;52.008;4.530;2023-07-08T07:55:19;5.60;;;5.60;;
73132;SDS011;61320;52.008;4.530;2023-07-08T07:57:44;5.73;;;5.73;;
73132;SDS011;61320;52.008;4.530;2023-07-08T08:00:12;6.06;;;6.06;;
73132;SDS011;61320;52.008;4.530;2023-07-08T08:02:42;5.63;;;5.63;;
73132;SDS011;61320;52.008;4.530;2023-07-08T08:05:08;5.80;;;5.80;;
73132;SDS011;61320;52.008;4.530;2023-07-08T08:07:34;6.08;;;6.08;;
73132;SDS011;61320;52.008;4.530;2023-07-08T08:10:01;5.96;;;5.96;;
73132;SDS011;61320;52.008;4.530;2023-07-08T08:12:26;5.93;;;5.93;;
73132;SDS011;61320;52.008;4.530;2023-07-08T08:14:52;5.83;;;5.83;;
73132;SDS011;61320;52.008;4.530;2023-07-08T08:17:17;6.45;;;6.45;;
73132;SDS011;61320;52.008;4.530;2023-07-08T08:19:43;6.85;;;6.85;;
73132;SDS011;61320;52.008;4.530;2023-07-08T08:22:08;6.60;;;6.60;;
73132;SDS011;61320;52.008;4.530;2023-07-08T08:24:34;6.22;;;6.22;;
73132;SDS011;61320;52.008;4.530;2023-07-08T08:26:59;6.80;;;6.80;;
73132;SDS011;61320;52.008;4.530;2023-07-08T08:29:25;7.49;;;7.49;;
73132;SDS011;61320;52.008;4.530;2023-07-08T08:31:51;12.72;;;12.72;;
73132;SDS011;61320;52.008;4.530;2023-07-08T08:34:16;20.56;;;20.56;;
73132;SDS011;61320;52.008;4.530;2023-07-08T08:36:42;15.06;;;15.06;;
73132;SDS011;61320;52.008;4.530;2023-07-08T08:39:08;8.76;;;8.76;;
73132;SDS011;61320;52.008;4.530;2023-07-08T08:41:34;7.21;;;7.21;;
73132;SDS011;61320;52.008;4.530;2023-07-08T08:44:03;7.29;;;7.29;;
73132;SDS011;61320;52.008;4.530;2023-07-08T08:51:55;6.75;;;6.75;;
73132;SDS011;61320;52.008;4.530;2023-07-08T08:54:22;6.75;;;6.75;;
73132;SDS011;61320;52.008;4.530;2023-07-08T09:01:51;7.42;;;7.42;;
73132;SDS011;61320;52.008;4.530;2023-07-08T09:04:31;7.02;;;7.02;;
73132;SDS011;61320;52.008;4.530;2023-07-08T09:07:05;6.89;;;6.89;;
73132;SDS011;61320;52.008;4.530;2023-07-08T09:09:42;7.28;;;7.28;;
73132;SDS011;61320;52.008;4.530;2023-07-08T09:12:23;14.36;;;14.36;;
73132;SDS011;61320;52.008;4.530;2023-07-08T09:14:52;10.04;;;10.04;;
73132;SDS011;61320;52.008;4.530;2023-07-08T09:20:05;9.81;;;9.81;;
73132;SDS011;61320;52.008;4.530;2023-07-08T09:26:15;8.44;;;8.44;;
73132;SDS011;61320;52.008;4.530;2023-07-08T09:28:40;7.74;;;7.74;;
73132;SDS011;61320;52.008;4.530;2023-07-08T09:31:10;8.15;;;8.15;;
73132;SDS011;61320;52.008;4.530;2023-07-08T09:33:48;7.76;;;7.76;;
73132;SDS011;61320;52.008;4.530;2023-07-08T09:36:17;7.54;;;7.54;;
73132;SDS011;61320;52.008;4.530;2023-07-08T09:38:47;6.87;;;6.87;;
73132;SDS011;61320;52.008;4.530;2023-07-08T09:41:17;7.41;;;7.41;;
73132;SDS011;61320;52.008;4.530;2023-07-08T09:44:02;7.64;;;7.64;;
73132;SDS011;61320;52.008;4.530;2023-07-08T09:46:39;7.30;;;7.30;;
73132;SDS011;61320;52.008;4.530;2023-07-08T09:49:09;7.27;;;7.27;;
73132;SDS011;61320;52.008;4.530;2023-07-08T09:51:42;7.09;;;7.09;;
73132;SDS011;61320;52.008;4.530;2023-07-08T09:54:08;7.58;;;7.58;;
73132;SDS011;61320;52.008;4.530;2023-07-08T09:56:34;8.07;;;8.07;;
73132;SDS011;61320;52.008;4.530;2023-07-08T09:59:00;8.11;;;8.11;;
73132;SDS011;61320;52.008;4.530;2023-07-08T10:01:26;8.69;;;8.69;;
73132;SDS011;61320;52.008;4.530;2023-07-08T10:04:00;7.72;;;7.72;;
73132;SDS011;61320;52.008;4.530;2023-07-08T10:06:27;7.86;;;7.86;;
73132;SDS011;61320;52.008;4.530;2023-07-08T10:08:59;8.11;;;8.11;;
73132;SDS011;61320;52.008;4.530;2023-07-08T10:11:37;7.28;;;7.28;;
73132;SDS011;61320;52.008;4.530;2023-07-08T10:14:12;7.85;;;7.85;;
73132;SDS011;61320;52.008;4.530;2023-07-08T10:17:00;7.61;;;7.61;;
73132;SDS011;61320;52.008;4.530;2023-07-08T10:19:26;7.88;;;7.88;;
73132;SDS011;61320;52.008;4.530;2023-07-08T10:25:01;12.36;;;12.36;;
73132;SDS011;61320;52.008;4.530;2023-07-08T10:31:21;7.90;;;7.90;;
73132;SDS011;61320;52.008;4.530;2023-07-08T10:34:24;10.55;;;10.55;;
73132;SDS011;61320;52.008;4.530;2023-07-08T10:37:10;8.71;;;8.71;;
73132;SDS011;61320;52.008;4.530;2023-07-08T10:39:53;8.74;;;8.74;;
73132;SDS011;61320;52.008;4.530;2023-07-08T10:56:20;7.76;;;7.76;;
73132;SDS011;61320;52.008;4.530;2023-07-08T11:01:36;7.01;;;7.01;;
73132;SDS011;61320;52.008;4.530;2023-07-08T11:04:26;6.51;;;6.51;;
73132;SDS011;61320;52.008;4.530;2023-07-08T11:07:15;7.27;;;7.27;;
73132;SDS011;61320;52.008;4.530;2023-07-08T11:09:54;6.73;;;6.73;;
73132;SDS011;61320;52.008;4.530;2023-07-08T11:12:34;7.21;;;7.21;;
73132;SDS011;61320;52.008;4.530;2023-07-08T11:17:43;6.84;;;6.84;;
73132;SDS011;61320;52.008;4.530;2023-07-08T11:20:17;7.28;;;7.28;;
73132;SDS011;61320;52.008;4.530;2023-07-08T11:22:51;7.26;;;7.26;;
73132;SDS011;61320;52.008;4.530;2023-07-08T11:25:23;6.90;;;6.90;;
73132;SDS011;61320;52.008;4.530;2023-07-08T11:27:54;7.03;;;7.03;;
73132;SDS011;61320;52.008;4.530;2023-07-08T11:30:24;7.08;;;7.08;;
73132;SDS011;61320;52.008;4.530;2023-07-08T11:33:04;7.26;;;7.26;;
73132;SDS011;61320;52.008;4.530;2023-07-08T11:35:40;7.21;;;7.21;;
73132;SDS011;61320;52.008;4.530;2023-07-08T11:38:16;7.04;;;7.04;;
73132;SDS011;61320;52.008;4.530;2023-07-08T11:41:04;7.05;;;7.05;;
73132;SDS011;61320;52.008;4.530;2023-07-08T11:43:46;7.33;;;7.33;;
73132;SDS011;61320;52.008;4.530;2023-07-08T11:46:18;7.45;;;7.45;;
73132;SDS011;61320;52.008;4.530;2023-07-08T11:48:50;7.30;;;7.30;;
73132;SDS011;61320;52.008;4.530;2023-07-08T11:51:19;7.28;;;7.28;;
73132;SDS011;61320;52.008;4.530;2023-07-08T11:53:50;7.48;;;7.48;;
73132;SDS011;61320;52.008;4.530;2023-07-08T11:56:25;7.86;;;7.86;;
73132;SDS011;61320;52.008;4.530;2023-07-08T12:01:40;9.74;;;9.74;;
73132;SDS011;61320;52.008;4.530;2023-07-08T12:04:23;8.94;;;8.94;;
73132;SDS011;61320;52.008;4.530;2023-07-08T12:09:57;7.62;;;7.62;;
73132;SDS011;61320;52.008;4.530;2023-07-08T12:12:27;7.45;;;7.45;;
73132;SDS011;61320;52.008;4.530;2023-07-08T12:15:04;9.02;;;9.02;;
73132;SDS011;61320;52.008;4.530;2023-07-08T12:17:47;9.11;;;9.11;;
73132;SDS011;61320;52.008;4.530;2023-07-08T12:20:16;7.52;;;7.52;;
73132;SDS011;61320;52.008;4.530;2023-07-08T12:22:46;7.86;;;7.86;;
73132;SDS011;61320;52.008;4.530;2023-07-08T12:25:16;8.41;;;8.41;;
73132;SDS011;61320;52.008;4.530;2023-07-08T12:27:47;7.73;;;7.73;;
73132;SDS011;61320;52.008;4.530;2023-07-08T12:30:14;8.49;;;8.49;;
73132;SDS011;61320;52.008;4.530;2023-07-08T12:32:41;8.53;;;8.53;;
73132;SDS011;61320;52.008;4.530;2023-07-08T12:35:16;7.88;;;7.88;;
73132;SDS011;61320;52.008;4.530;2023-07-08T12:37:48;7.46;;;7.46;;
73132;SDS011;61320;52.008;4.530;2023-07-08T12:40:14;7.75;;;7.75;;
73132;SDS011;61320;52.008;4.530;2023-07-08T12:42:39;7.78;;;7.78;;
73132;SDS011;61320;52.008;4.530;2023-07-08T12:45:12;7.42;;;7.42;;
73132;SDS011;61320;52.008;4.530;2023-07-08T12:47:40;7.43;;;7.43;;
73132;SDS011;61320;52.008;4.530;2023-07-08T12:50:08;7.92;;;7.92;;
73132;SDS011;61320;52.008;4.530;2023-07-08T12:52:34;7.39;;;7.39;;
73132;SDS011;61320;52.008;4.530;2023-07-08T12:55:00;7.69;;;7.69;;
73132;SDS011;61320;52.008;4.530;2023-07-08T12:57:26;6.99;;;6.99;;
73132;SDS011;61320;52.008;4.530;2023-07-08T12:59:51;7.35;;;7.35;;
73132;SDS011;61320;52.008;4.530;2023-07-08T13:02:17;7.49;;;7.49;;
73132;SDS011;61320;52.008;4.530;2023-07-08T13:04:47;7.69;;;7.69;;
73132;SDS011;61320;52.008;4.530;2023-07-08T13:07:23;7.15;;;7.15;;
73132;SDS011;61320;52.008;4.530;2023-07-08T13:10:20;7.10;;;7.10;;
73132;SDS011;61320;52.008;4.530;2023-07-08T13:12:50;6.98;;;6.98;;
73132;SDS011;61320;52.008;4.530;2023-07-08T13:15:38;6.77;;;6.77;;
73132;SDS011;61320;52.008;4.530;2023-07-08T13:18:14;6.51;;;6.51;;
73132;SDS011;61320;52.008;4.530;2023-07-08T13:20:47;7.49;;;7.49;;
73132;SDS011;61320;52.008;4.530;2023-07-08T13:23:17;6.18;;;6.18;;
73132;SDS011;61320;52.008;4.530;2023-07-08T13:25:46;5.79;;;5.79;;
73132;SDS011;61320;52.008;4.530;2023-07-08T13:28:16;6.01;;;6.01;;
73132;SDS011;61320;52.008;4.530;2023-07-08T13:30:56;5.84;;;5.84;;
73132;SDS011;61320;52.008;4.530;2023-07-08T13:33:30;5.90;;;5.90;;
73132;SDS011;61320;52.008;4.530;2023-07-08T13:35:58;6.25;;;6.25;;
73132;SDS011;61320;52.008;4.530;2023-07-08T13:38:31;5.96;;;5.96;;
73132;SDS011;61320;52.008;4.530;2023-07-08T13:41:00;6.47;;;6.47;;
73132;SDS011;61320;52.008;4.530;2023-07-08T13:43:30;6.27;;;6.27;;
73132;SDS011;61320;52.008;4.530;2023-07-08T13:45:58;6.26;;;6.26;;
73132;SDS011;61320;52.008;4.530;2023-07-08T13:48:34;6.44;;;6.44;;
73132;SDS011;61320;52.008;4.530;2023-07-08T13:56:28;5.90;;;5.90;;
73132;SDS011;61320;52.008;4.530;2023-07-08T13:59:03;5.69;;;5.69;;
73132;SDS011;61320;52.008;4.530;2023-07-08T14:01:35;6.10;;;6.10;;
73132;SDS011;61320;52.008;4.530;2023-07-08T14:04:04;6.60;;;6.60;;
73132;SDS011;61320;52.008;4.530;2023-07-08T14:06:36;6.89;;;6.89;;
73132;SDS011;61320;52.008;4.530;2023-07-08T14:09:11;7.27;;;7.27;;
73132;SDS011;61320;52.008;4.530;2023-07-08T14:11:39;7.08;;;7.08;;
73132;SDS011;61320;52.008;4.530;2023-07-08T14:14:05;7.31;;;7.30;;
73132;SDS011;61320;52.008;4.530;2023-07-08T14:16:31;7.36;;;7.36;;
73132;SDS011;61320;52.008;4.530;2023-07-08T14:19:01;7.19;;;7.19;;
73132;SDS011;61320;52.008;4.530;2023-07-08T14:21:34;7.33;;;7.33;;
73132;SDS011;61320;52.008;4.530;2023-07-08T14:24:01;7.31;;;7.31;;
73132;SDS011;61320;52.008;4.530;2023-07-08T14:26:28;7.61;;;7.61;;
73132;SDS011;61320;52.008;4.530;2023-07-08T14:28:54;7.66;;;7.66;;
73132;SDS011;61320;52.008;4.530;2023-07-08T14:31:24;7.94;;;7.94;;
73132;SDS011;61320;52.008;4.530;2023-07-08T14:33:54;7.68;;;7.68;;
73132;SDS011;61320;52.008;4.530;2023-07-08T14:36:30;7.90;;;7.90;;
73132;SDS011;61320;52.008;4.530;2023-07-08T14:38:56;7.60;;;7.60;;
73132;SDS011;61320;52.008;4.530;2023-07-08T14:41:22;7.64;;;7.64;;
73132;SDS011;61320;52.008;4.530;2023-07-08T14:43:48;7.76;;;7.76;;
73132;SDS011;61320;52.008;4.530;2023-07-08T14:46:14;8.29;;;8.29;;
73132;SDS011;61320;52.008;4.530;2023-07-08T14:48:41;8.24;;;8.24;;
73132;SDS011;61320;52.008;4.530;2023-07-08T14:51:07;8.01;;;8.01;;
73132;SDS011;61320;52.008;4.530;2023-07-08T14:53:33;8.14;;;8.14;;
73132;SDS011;61320;52.008;4.530;2023-07-08T14:55:58;7.79;;;7.79;;
73132;SDS011;61320;52.008;4.530;2023-07-08T14:58:37;7.97;;;7.97;;
73132;SDS011;61320;52.008;4.530;2023-07-08T15:01:08;8.39;;;8.39;;
73132;SDS011;61320;52.008;4.530;2023-07-08T15:03:42;8.25;;;8.25;;
73132;SDS011;61320;52.008;4.530;2023-07-08T15:06:09;8.16;;;8.16;;
73132;SDS011;61320;52.008;4.530;2023-07-08T15:08:35;8.30;;;8.30;;
73132;SDS011;61320;52.008;4.530;2023-07-08T15:11:01;8.05;;;8.05;;
73132;SDS011;61320;52.008;4.530;2023-07-08T15:13:30;8.70;;;8.70;;
73132;SDS011;61320;52.008;4.530;2023-07-08T15:15:57;8.08;;;8.08;;
73132;SDS011;61320;52.008;4.530;2023-07-08T15:18:24;8.33;;;8.33;;
73132;SDS011;61320;52.008;4.530;2023-07-08T15:20:49;8.46;;;8.46;;
73132;SDS011;61320;52.008;4.530;2023-07-08T15:23:15;8.54;;;8.54;;
73132;SDS011;61320;52.008;4.530;2023-07-08T15:25:42;8.58;;;8.58;;
73132;SDS011;61320;52.008;4.530;2023-07-08T15:28:25;8.65;;;8.65;;
73132;SDS011;61320;52.008;4.530;2023-07-08T15:31:04;9.03;;;9.03;;
73132;SDS011;61320;52.008;4.530;2023-07-08T15:33:30;10.75;;;10.75;;
73132;SDS011;61320;52.008;4.530;2023-07-08T15:35:55;17.96;;;17.96;;
73132;SDS011;61320;52.008;4.530;2023-07-08T15:38:21;10.70;;;10.70;;
73132;SDS011;61320;52.008;4.530;2023-07-08T15:40:46;10.79;;;10.79;;
73132;SDS011;61320;52.008;4.530;2023-07-08T15:43:13;15.41;;;15.41;;
73132;SDS011;61320;52.008;4.530;2023-07-08T15:45:40;9.42;;;9.42;;
73132;SDS011;61320;52.008;4.530;2023-07-08T15:48:16;9.52;;;9.52;;
73132;SDS011;61320;52.008;4.530;2023-07-08T15:50:43;9.93;;;9.93;;
73132;SDS011;61320;52.008;4.530;2023-07-08T15:53:09;9.55;;;9.55;;
73132;SDS011;61320;52.008;4.530;2023-07-08T15:55:39;9.97;;;9.97;;